Time;durP1;ratioP1;P1;durP2;ratioP2;P2;SDS_P1;SDS_P2;PMS_P1;PMS_P2;Temp;Humidity;BMP_temperature;BMP_pressure;BME280_temperature;BME280_humidity;BME280_pressure;Samples;Min_cycle;Max_cycle;Signal;HPM_P1;HPM_P2
2022/03/26 00:02:23;;;;;;;23.40;11.15;;;13.00;66.50;;;;;;5079704;28;20043;-93
2022/03/26 00:04:49;;;;;;;22.40;12.00;;;13.00;66.60;;;;;;5045993;28;20029;-93
2022/03/26 00:07:15;;;;;;;21.05;11.95;;;12.90;66.10;;;;;;5079583;28;20028;-92
2022/03/26 00:09:40;;;;;;;19.52;11.20;;;12.90;66.20;;;;;;5062394;28;20080;-93
2022/03/26 00:12:08;;;;;;;23.38;12.20;;;12.90;66.20;;;;;;5045902;28;20074;-93
2022/03/26 00:14:33;;;;;;;26.80;12.50;;;12.90;66.50;;;;;;5046011;28;20028;-93
2022/03/26 00:17:00;;;;;;;22.60;13.18;;;12.80;66.80;;;;;;5061823;28;20059;-93
2022/03/26 00:19:27;;;;;;;26.55;12.10;;;12.80;66.90;;;;;;5062490;28;20028;-93
2022/03/26 00:21:53;;;;;;;22.63;12.07;;;12.70;66.70;;;;;;5062604;28;20055;-93
2022/03/26 00:24:19;;;;;;;23.23;11.73;;;12.70;66.90;;;;;;5078699;28;20020;-93
2022/03/26 00:26:45;;;;;;;21.45;11.63;;;12.70;67.30;;;;;;5078727;28;20423;-93
2022/03/26 00:29:10;;;;;;;24.05;11.95;;;12.70;67.40;;;;;;5062238;28;20060;-94
2022/03/26 00:31:37;;;;;;;21.40;10.48;;;12.60;67.30;;;;;;5078812;28;20129;-93
2022/03/26 00:34:04;;;;;;;21.60;11.55;;;12.60;67.30;;;;;;5078994;28;20020;-93
2022/03/26 00:36:31;;;;;;;32.28;11.68;;;12.60;67.40;;;;;;5045727;28;20456;-93
2022/03/26 00:38:56;;;;;;;23.08;11.80;;;12.50;67.40;;;;;;5096521;28;20529;-93
2022/03/26 00:41:23;;;;;;;22.90;12.38;;;12.50;67.60;;;;;;5061944;28;20059;-93
2022/03/26 00:43:49;;;;;;;26.00;11.70;;;12.50;67.80;;;;;;5045732;28;20100;-93
2022/03/26 00:46:15;;;;;;;24.20;11.80;;;12.50;67.90;;;;;;5062133;28;20024;-93
2022/03/26 00:48:41;;;;;;;27.40;12.77;;;12.40;68.00;;;;;;5078321;28;20111;-93
2022/03/26 00:51:07;;;;;;;27.00;12.45;;;12.40;68.10;;;;;;5061957;28;20042;-93
2022/03/26 00:53:33;;;;;;;23.98;12.75;;;12.40;68.10;;;;;;5062847;28;20461;-93
2022/03/26 00:55:59;;;;;;;23.80;13.10;;;12.30;68.40;;;;;;5080098;28;20469;-92
2022/03/26 00:58:25;;;;;;;28.05;13.40;;;12.30;68.40;;;;;;5061650;28;20085;-94
2022/03/26 01:00:51;;;;;;;26.42;12.05;;;12.30;68.60;;;;;;5078416;28;20035;-93
2022/03/26 01:03:18;;;;;;;23.85;12.07;;;12.20;68.50;;;;;;5096620;28;20071;-93
2022/03/26 01:05:44;;;;;;;27.35;12.40;;;12.20;68.40;;;;;;5061729;28;20469;-93
2022/03/26 01:08:10;;;;;;;22.95;12.82;;;12.20;69.30;;;;;;5079298;28;20116;-93
2022/03/26 01:10:36;;;;;;;23.75;12.60;;;12.20;68.70;;;;;;5101346;28;20058;-93
2022/03/26 01:13:02;;;;;;;24.33;12.35;;;12.10;68.80;;;;;;5078339;28;20024;-93
2022/03/26 01:15:28;;;;;;;23.63;12.45;;;12.10;69.00;;;;;;5061639;28;20028;-93
2022/03/26 01:17:54;;;;;;;22.95;12.02;;;12.10;68.90;;;;;;5080188;28;20048;-93
2022/03/26 01:20:20;;;;;;;29.92;13.05;;;12.10;69.10;;;;;;5078005;28;20380;-92
2022/03/26 01:22:46;;;;;;;24.98;12.85;;;12.00;69.20;;;;;;5044664;28;20032;-94
2022/03/26 01:25:12;;;;;;;29.98;13.93;;;12.00;69.30;;;;;;5044709;28;20082;-92
2022/03/26 01:27:38;;;;;;;24.20;13.00;;;12.00;69.30;;;;;;5077869;28;20027;-93
2022/03/26 01:30:05;;;;;;;25.73;13.68;;;12.00;69.50;;;;;;5077547;28;20373;-93
2022/03/26 01:32:31;;;;;;;25.08;13.23;;;11.90;69.60;;;;;;5077538;28;20031;-93
2022/03/26 01:34:57;;;;;;;25.17;13.75;;;11.90;69.60;;;;;;5086809;28;20020;-92
2022/03/26 01:37:24;;;;;;;25.27;13.55;;;11.80;69.70;;;;;;5044459;28;20020;-92
2022/03/26 01:40:11;;;;;;;23.75;12.85;;;11.80;69.70;;;;;;5044604;28;20133;-92
2022/03/26 01:42:37;;;;;;;24.85;12.88;;;11.80;69.90;;;;;;5080471;28;20031;-92
2022/03/26 01:45:03;;;;;;;27.98;13.60;;;11.70;69.90;;;;;;5080962;28;20028;-92
2022/03/26 01:47:29;;;;;;;29.00;14.55;;;11.70;70.00;;;;;;5080872;28;20467;-93
2022/03/26 01:49:54;;;;;;;27.23;15.10;;;11.70;70.20;;;;;;5080559;28;20110;-93
2022/03/26 01:52:20;;;;;;;27.70;13.45;;;11.70;70.50;;;;;;5088943;28;20074;-92
2022/03/26 01:54:46;;;;;;;29.40;14.55;;;11.60;70.50;;;;;;5095711;28;20476;-94
2022/03/26 01:57:12;;;;;;;24.38;14.68;;;11.60;70.60;;;;;;5077258;28;20115;-92
2022/03/26 01:59:39;;;;;;;29.45;15.30;;;11.60;70.90;;;;;;5043948;28;20051;-93
2022/03/26 02:02:06;;;;;;;28.33;13.43;;;11.60;70.90;;;;;;5060748;28;20024;-92
2022/03/26 02:04:35;;;;;;;28.55;14.65;;;11.50;71.00;;;;;;5077296;28;20488;-93
2022/03/26 02:07:05;;;;;;;29.33;14.95;;;11.50;71.10;;;;;;5077040;28;20028;-93
2022/03/26 02:09:48;;;;;;;29.38;14.63;;;11.50;71.30;;;;;;5060639;28;20016;-93
2022/03/26 02:12:25;;;;;;;24.48;13.73;;;11.50;71.50;;;;;;5060488;28;20035;-93
2022/03/26 02:14:51;;;;;;;26.17;14.98;;;11.40;72.00;;;;;;5044299;28;20032;-92
2022/03/26 02:17:17;;;;;;;29.38;14.38;;;11.40;71.50;;;;;;5077002;28;20502;-93
2022/03/26 02:20:05;;;;;;;24.55;14.68;;;11.40;71.70;;;;;;5095249;28;20019;-93
2022/03/26 02:22:31;;;;;;;26.98;14.55;;;11.30;71.90;;;;;;5076876;28;20043;-93
2022/03/26 02:24:57;;;;;;;28.75;15.02;;;11.30;71.90;;;;;;5060296;28;20032;-93
2022/03/26 02:27:27;;;;;;;27.55;15.73;;;11.30;72.60;;;;;;5076755;28;20024;-93
2022/03/26 02:29:53;;;;;;;28.23;16.33;;;11.20;72.00;;;;;;5077208;28;20120;-92
2022/03/26 02:32:23;;;;;;;28.42;15.85;;;11.20;72.00;;;;;;5076784;28;20461;-93
2022/03/26 02:34:49;;;;;;;33.65;15.80;;;11.20;72.30;;;;;;5076900;28;20039;-92
2022/03/26 02:37:16;;;;;;;31.73;15.50;;;11.20;72.40;;;;;;5060177;28;20024;-93
2022/03/26 02:39:42;;;;;;;29.85;15.65;;;11.10;72.30;;;;;;5076778;28;20307;-93
2022/03/26 02:42:08;;;;;;;25.80;15.25;;;11.10;72.20;;;;;;5076592;28;20036;-93
2022/03/26 02:44:34;;;;;;;30.23;15.77;;;11.10;72.20;;;;;;5060094;28;20051;-93
2022/03/26 02:47:00;;;;;;;33.10;16.40;;;11.10;72.10;;;;;;5043487;28;20070;-93
2022/03/26 02:49:26;;;;;;;30.70;16.10;;;11.00;72.10;;;;;;5060117;28;20024;-93
2022/03/26 02:51:51;;;;;;;28.80;15.80;;;11.00;72.00;;;;;;5060090;28;20023;-93
2022/03/26 02:54:21;;;;;;;31.75;16.67;;;11.00;72.50;;;;;;5043188;28;20036;-93
2022/03/26 02:56:54;;;;;;;30.05;16.83;;;10.90;72.30;;;;;;5060650;28;20122;-93
2022/03/26 02:59:23;;;;;;;30.88;15.90;;;10.90;72.60;;;;;;5060436;28;20028;-93
2022/03/26 03:01:54;;;;;;;32.22;15.95;;;10.80;72.50;;;;;;5077689;28;20056;-89
2022/03/26 03:04:21;;;;;;;30.33;16.35;;;10.80;72.50;;;;;;5076609;28;20085;-89
2022/03/26 03:06:47;;;;;;;27.58;16.33;;;10.80;72.40;;;;;;5077497;28;20028;-90
2022/03/26 03:09:13;;;;;;;30.70;16.50;;;10.70;72.10;;;;;;5044015;28;20024;-88
2022/03/26 03:11:38;;;;;;;35.13;15.57;;;10.70;72.30;;;;;;5043117;28;20035;-88
2022/03/26 03:14:05;;;;;;;34.60;17.48;;;10.70;72.40;;;;;;5043260;28;20031;-88
2022/03/26 03:16:32;;;;;;;31.40;16.80;;;10.70;72.50;;;;;;5075867;28;20040;-88
2022/03/26 03:18:58;;;;;;;32.50;16.05;;;10.60;72.80;;;;;;5093901;28;20061;-89
2022/03/26 03:21:23;;;;;;;31.13;16.10;;;10.60;73.10;;;;;;5059678;28;20099;-87
2022/03/26 03:23:49;;;;;;;28.40;17.10;;;10.60;73.00;;;;;;5059364;28;20036;-88
2022/03/26 03:26:15;;;;;;;33.92;16.70;;;10.50;72.80;;;;;;5042711;28;20035;-89
2022/03/26 03:28:42;;;;;;;30.17;16.55;;;10.50;72.70;;;;;;5059467;28;20029;-88
2022/03/26 03:31:08;;;;;;;32.70;16.48;;;10.40;72.70;;;;;;5093746;28;20091;-88
2022/03/26 03:33:34;;;;;;;32.70;17.13;;;10.40;72.60;;;;;;5076206;28;20048;-89
2022/03/26 03:36:00;;;;;;;32.30;16.60;;;10.30;72.80;;;;;;5059160;28;20039;-89
2022/03/26 03:38:26;;;;;;;32.53;16.10;;;10.30;72.90;;;;;;5059351;28;20519;-89
2022/03/26 03:40:52;;;;;;;31.20;16.55;;;10.30;73.00;;;;;;5059184;28;20499;-88
2022/03/26 03:43:17;;;;;;;34.97;16.52;;;10.20;73.20;;;;;;5043260;28;20451;-89
2022/03/26 03:45:43;;;;;;;30.80;16.13;;;10.20;73.30;;;;;;5062789;28;20115;-88
2022/03/26 03:48:09;;;;;;;26.00;13.90;;;10.10;73.50;;;;;;5046489;28;20445;-89
2022/03/26 03:50:34;;;;;;;28.58;14.60;;;10.10;73.90;;;;;;5062785;28;20087;-89
2022/03/26 03:53:00;;;;;;;27.48;14.98;;;10.00;73.40;;;;;;5046100;28;20024;-87
2022/03/26 03:55:27;;;;;;;25.75;14.77;;;10.00;73.40;;;;;;5062823;28;20029;-88
2022/03/26 03:57:54;;;;;;;27.70;15.68;;;9.90;73.60;;;;;;5062813;28;20054;-89
2022/03/26 04:00:20;;;;;;;33.00;16.35;;;9.80;73.60;;;;;;5079190;28;20028;-89
2022/03/26 04:02:46;;;;;;;29.92;15.77;;;9.80;74.10;;;;;;5046461;28;20077;-90
2022/03/26 04:05:13;;;;;;;28.48;15.88;;;9.70;74.50;;;;;;5079326;28;20027;-90
2022/03/26 04:07:40;;;;;;;43.28;17.73;;;9.70;74.60;;;;;;5046385;28;20024;-89
2022/03/26 04:10:07;;;;;;;32.47;15.95;;;9.60;74.50;;;;;;5062562;28;20044;-90
2022/03/26 04:12:40;;;;;;;31.45;15.93;;;9.60;74.80;;;;;;5046164;28;20556;-90
2022/03/26 04:15:07;;;;;;;27.38;15.88;;;9.50;75.20;;;;;;5063771;28;20460;-90
2022/03/26 04:17:33;;;;;;;34.20;16.33;;;9.50;75.30;;;;;;5078817;28;20044;-90
2022/03/26 04:20:08;;;;;;;30.52;15.50;;;9.50;75.80;;;;;;5079307;28;20111;-88
2022/03/26 04:22:34;;;;;;;28.17;16.50;;;9.50;76.00;;;;;;5062281;28;20021;-88
2022/03/26 04:25:00;;;;;;;32.20;16.52;;;9.40;76.50;;;;;;5062151;28;20428;-89
2022/03/26 04:27:25;;;;;;;33.28;16.45;;;9.30;76.00;;;;;;5078756;28;20027;-89
2022/03/26 04:29:51;;;;;;;31.70;17.02;;;9.30;76.30;;;;;;5045187;28;20178;-88
2022/03/26 04:32:32;;;;;;;33.95;17.27;;;9.30;76.40;;;;;;5045628;28;20016;-90
2022/03/26 04:34:58;;;;;;;36.55;16.25;;;9.20;76.40;;;;;;5062231;28;20024;-90
2022/03/26 04:37:24;;;;;;;30.80;16.83;;;9.20;76.40;;;;;;5045645;28;20477;-90
2022/03/26 04:39:49;;;;;;;31.23;16.38;;;9.20;76.40;;;;;;5062244;28;20028;-90
2022/03/26 04:42:15;;;;;;;30.88;16.67;;;9.10;76.70;;;;;;5045393;28;20028;-90
2022/03/26 04:44:40;;;;;;;30.80;16.20;;;9.10;77.50;;;;;;5046600;28;20538;-90
2022/03/26 04:47:07;;;;;;;31.40;16.95;;;9.10;77.10;;;;;;5062083;28;20480;-90
2022/03/26 04:49:32;;;;;;;28.25;15.63;;;9.00;77.60;;;;;;5062062;28;20046;-90
2022/03/26 04:51:58;;;;;;;29.67;15.95;;;9.00;78.20;;;;;;5078874;28;20025;-90
2022/03/26 04:54:24;;;;;;;33.75;16.58;;;8.90;77.80;;;;;;5047052;28;20063;-90
2022/03/26 04:56:50;;;;;;;33.13;16.00;;;8.90;78.10;;;;;;5065151;28;20038;-90
2022/03/26 04:59:16;;;;;;;30.25;16.25;;;8.80;78.30;;;;;;5064332;28;20092;-90
2022/03/26 05:01:44;;;;;;;34.55;16.67;;;8.80;78.50;;;;;;5081612;28;20028;-89
2022/03/26 05:04:11;;;;;;;29.08;16.38;;;8.70;78.70;;;;;;5049396;28;20059;-90
2022/03/26 05:06:37;;;;;;;29.92;16.65;;;8.70;78.80;;;;;;5063171;28;20177;-89
2022/03/26 05:09:03;;;;;;;29.42;15.68;;;8.60;79.30;;;;;;5061293;28;20082;-89
2022/03/26 05:11:28;;;;;;;36.60;17.58;;;8.60;79.30;;;;;;5078044;28;20020;-90
2022/03/26 05:13:54;;;;;;;32.83;16.38;;;8.60;79.80;;;;;;5078002;28;20090;-89
2022/03/26 05:16:19;;;;;;;30.33;16.83;;;8.50;80.20;;;;;;5077036;28;20063;-89
2022/03/26 05:18:45;;;;;;;30.70;16.60;;;8.40;80.30;;;;;;5044565;28;20032;-89
2022/03/26 05:21:11;;;;;;;34.53;17.08;;;8.40;80.40;;;;;;5061178;28;20043;-90
2022/03/26 05:23:36;;;;;;;27.35;15.73;;;8.40;80.90;;;;;;5077846;28;20024;-90
2022/03/26 05:26:03;;;;;;;31.30;16.23;;;8.40;81.00;;;;;;5095644;28;20024;-89
2022/03/26 05:28:29;;;;;;;32.15;16.20;;;8.40;81.00;;;;;;5060818;28;20027;-90
2022/03/26 05:30:55;;;;;;;30.48;15.18;;;8.30;81.20;;;;;;5084192;23;20377;-89
2022/03/26 05:33:21;;;;;;;35.22;16.30;;;8.30;81.60;;;;;;5076703;28;20023;-89
2022/03/26 05:35:46;;;;;;;33.47;16.38;;;8.30;81.80;;;;;;5077138;28;20020;-89
2022/03/26 05:38:12;;;;;;;30.13;15.52;;;8.30;81.90;;;;;;5077598;28;20024;-93
2022/03/26 05:40:38;;;;;;;32.40;15.85;;;8.30;82.20;;;;;;5077524;28;20032;-93
2022/03/26 05:43:04;;;;;;;35.53;15.43;;;8.20;82.30;;;;;;5060671;28;20035;-92
2022/03/26 05:45:30;;;;;;;32.50;15.77;;;8.20;82.70;;;;;;5077375;28;20035;-93
2022/03/26 05:47:59;;;;;;;34.97;17.55;;;8.30;82.80;;;;;;5094197;28;20024;-92
2022/03/26 05:50:25;;;;;;;33.78;15.82;;;8.20;83.00;;;;;;5094174;28;20435;-93
2022/03/26 05:52:51;;;;;;;35.17;15.23;;;8.20;82.90;;;;;;5077461;28;20024;-93
2022/03/26 05:55:17;;;;;;;30.30;15.15;;;8.20;83.20;;;;;;5060646;28;20024;-93
2022/03/26 05:57:42;;;;;;;29.08;15.95;;;8.20;83.20;;;;;;5060682;28;20073;-93
2022/03/26 06:00:10;;;;;;;27.13;15.65;;;8.20;83.70;;;;;;5077145;28;20024;-92
2022/03/26 06:02:36;;;;;;;28.92;15.57;;;8.20;83.80;;;;;;5077359;28;20081;-93
2022/03/26 06:05:05;;;;;;;28.15;16.10;;;8.10;84.00;;;;;;5093790;28;20081;-93
2022/03/26 06:07:31;;;;;;;33.47;16.67;;;8.10;84.00;;;;;;5094690;28;20016;-92
2022/03/26 06:09:57;;;;;;;31.48;16.95;;;8.20;84.50;;;;;;5095365;28;20063;-93
2022/03/26 06:12:23;;;;;;;32.88;15.52;;;8.10;84.50;;;;;;5094118;28;20020;-92
2022/03/26 06:14:49;;;;;;;27.98;16.35;;;8.20;84.70;;;;;;5093982;28;20583;-93
2022/03/26 06:17:15;;;;;;;27.48;15.77;;;8.10;85.00;;;;;;5093737;28;20058;-93
2022/03/26 06:19:42;;;;;;;29.33;15.75;;;8.10;85.10;;;;;;5060355;28;20462;-93
2022/03/26 06:22:07;;;;;;;29.10;16.02;;;8.20;85.30;;;;;;5093837;28;20370;-94
2022/03/26 06:24:34;;;;;;;27.75;15.25;;;8.10;85.40;;;;;;5093716;28;20236;-93
2022/03/26 06:27:01;;;;;;;27.85;15.13;;;8.20;85.80;;;;;;5094053;28;20036;-92
2022/03/26 06:29:26;;;;;;;28.23;15.88;;;8.20;86.10;;;;;;5076868;28;20028;-92
2022/03/26 06:31:52;;;;;;;27.70;15.93;;;8.20;86.30;;;;;;5059828;28;20059;-93
2022/03/26 06:34:18;;;;;;;34.00;16.45;;;8.20;86.60;;;;;;5076820;28;20358;-94
2022/03/26 06:36:44;;;;;;;32.00;16.42;;;8.20;86.90;;;;;;5094025;28;20046;-92
2022/03/26 06:39:10;;;;;;;32.85;17.90;;;8.20;87.10;;;;;;5077066;28;20028;-93
2022/03/26 06:41:39;;;;;;;36.63;19.02;;;8.30;87.30;;;;;;5076918;28;20024;-93
2022/03/26 06:44:09;;;;;;;37.20;19.35;;;8.30;87.50;;;;;;5077253;28;20042;-92
2022/03/26 06:46:38;;;;;;;36.33;20.17;;;8.30;87.70;;;;;;5094720;28;20032;-93
2022/03/26 06:49:07;;;;;;;35.38;19.85;;;8.30;88.00;;;;;;5093747;28;20020;-93
2022/03/26 06:51:33;;;;;;;33.00;19.10;;;8.40;88.40;;;;;;5073479;28;20382;-93
2022/03/26 06:53:59;;;;;;;36.10;18.70;;;8.40;88.90;;;;;;5077973;28;20062;-93
2022/03/26 06:56:25;;;;;;;37.20;18.77;;;8.50;88.90;;;;;;5094429;28;20028;-93
2022/03/26 06:58:51;;;;;;;36.42;20.25;;;8.50;88.80;;;;;;5061039;28;20046;-93
2022/03/26 07:01:17;;;;;;;37.72;20.92;;;8.50;88.80;;;;;;5094290;28;20020;-93
2022/03/26 07:03:44;;;;;;;42.45;23.08;;;8.50;88.70;;;;;;5078658;28;20028;-93
2022/03/26 07:06:10;;;;;;;40.35;21.67;;;8.60;88.40;;;;;;5076827;28;20032;-93
2022/03/26 07:08:35;;;;;;;37.20;20.58;;;8.60;88.10;;;;;;5076586;28;20561;-93
2022/03/26 07:11:02;;;;;;;39.42;22.23;;;8.60;87.80;;;;;;5077025;28;20028;-89
2022/03/26 07:14:15;;;;;;;41.58;22.15;;;8.60;87.70;;;;;;5061548;28;20028;-89
2022/03/26 07:16:40;;;;;;;40.75;23.02;;;8.70;87.80;;;;;;5093038;28;20552;-90
2022/03/26 07:19:06;;;;;;;45.15;22.40;;;8.70;87.70;;;;;;5079289;28;20071;-90
2022/03/26 07:21:32;;;;;;;39.45;22.58;;;8.70;87.60;;;;;;5065526;28;20028;-90
2022/03/26 07:23:57;;;;;;;41.63;23.10;;;8.80;87.80;;;;;;5082028;28;20027;-90
2022/03/26 07:26:23;;;;;;;36.40;23.27;;;8.80;87.90;;;;;;5096861;28;20043;-90
2022/03/26 07:28:50;;;;;;;41.13;22.98;;;8.90;88.20;;;;;;5063250;28;20039;-90
2022/03/26 07:31:16;;;;;;;43.40;23.90;;;9.00;88.20;;;;;;5063229;28;20489;-90
2022/03/26 07:33:41;;;;;;;39.88;23.75;;;9.00;88.40;;;;;;5079941;28;20024;-90
2022/03/26 07:36:07;;;;;;;42.22;23.75;;;9.10;88.40;;;;;;5097786;28;20032;-90
2022/03/26 07:38:33;;;;;;;40.20;23.38;;;9.20;88.50;;;;;;5079768;28;20032;-90
2022/03/26 07:40:58;;;;;;;41.75;24.13;;;9.30;88.60;;;;;;5080027;28;20158;-90
2022/03/26 07:43:24;;;;;;;43.63;24.60;;;9.40;88.70;;;;;;5062998;28;20030;-90
2022/03/26 07:45:50;;;;;;;43.42;24.80;;;9.50;88.60;;;;;;5079554;28;20116;-90
2022/03/26 07:48:15;;;;;;;49.63;26.58;;;9.60;88.50;;;;;;5079575;28;20032;-90
2022/03/26 07:50:41;;;;;;;52.08;26.30;;;9.70;88.50;;;;;;5079387;28;20038;-90
2022/03/26 07:53:07;;;;;;;47.15;26.73;;;9.70;88.60;;;;;;5096071;28;20090;-90
2022/03/26 07:55:32;;;;;;;50.63;26.42;;;9.80;88.90;;;;;;5064898;28;20536;-90
2022/03/26 07:58:01;;;;;;;44.80;25.45;;;9.90;88.90;;;;;;5107534;28;20056;-89
2022/03/26 08:00:26;;;;;;;46.72;26.33;;;10.00;89.00;;;;;;5100242;28;20035;-90
2022/03/26 08:02:52;;;;;;;48.35;25.58;;;10.10;88.90;;;;;;5062568;28;20032;-90
2022/03/26 08:05:18;;;;;;;53.08;25.55;;;10.20;88.90;;;;;;5079631;28;20035;-89
2022/03/26 08:07:44;;;;;;;47.85;25.83;;;10.30;88.80;;;;;;5062756;28;20081;-90
2022/03/26 08:10:09;;;;;;;45.17;25.92;;;10.40;88.60;;;;;;5078805;28;20020;-90
2022/03/26 08:12:38;;;;;;;54.42;27.25;;;10.40;88.30;;;;;;5079189;28;20016;-90
2022/03/26 08:15:05;;;;;;;48.03;25.05;;;10.60;88.00;;;;;;5096128;28;20469;-90
2022/03/26 08:17:31;;;;;;;43.55;24.67;;;10.60;87.60;;;;;;5079180;28;20089;-90
2022/03/26 08:19:57;;;;;;;51.30;26.63;;;10.70;87.50;;;;;;5096678;28;20024;-89
2022/03/26 08:22:31;;;;;;;45.53;25.33;;;10.80;87.40;;;;;;5079948;28;20140;-90
2022/03/26 08:24:57;;;;;;;52.85;27.27;;;11.00;86.90;;;;;;5090687;28;20464;-88
2022/03/26 08:27:23;;;;;;;61.92;29.85;;;11.10;86.60;;;;;;5069267;28;20028;-89
2022/03/26 08:29:50;;;;;;;50.17;26.83;;;11.10;86.50;;;;;;5086608;28;20083;-88
2022/03/26 08:32:16;;;;;;;48.15;25.33;;;11.30;86.90;;;;;;5066797;28;20045;-89
2022/03/26 08:34:42;;;;;;;41.95;23.17;;;11.40;86.80;;;;;;5093775;28;20028;-89
2022/03/26 08:37:08;;;;;;;44.83;23.08;;;11.50;86.00;;;;;;5075525;28;20043;-89
2022/03/26 08:39:34;;;;;;;40.92;22.55;;;11.60;84.90;;;;;;5074950;28;20059;-88
2022/03/26 08:41:59;;;;;;;46.03;21.95;;;11.70;84.60;;;;;;5074766;28;20028;-88
2022/03/26 08:44:25;;;;;;;36.92;19.73;;;11.80;83.80;;;;;;5074931;28;20078;-88
2022/03/26 08:46:51;;;;;;;37.42;20.88;;;11.90;83.60;;;;;;5074544;28;20028;-87
2022/03/26 08:49:17;;;;;;;37.15;21.77;;;12.00;83.80;;;;;;5075587;28;20099;-88
2022/03/26 08:51:42;;;;;;;39.08;20.73;;;12.20;83.60;;;;;;5074540;28;20025;-88
2022/03/26 08:54:08;;;;;;;35.63;21.02;;;12.30;84.30;;;;;;5074630;28;20114;-88
2022/03/26 08:56:35;;;;;;;34.20;20.52;;;12.40;83.80;;;;;;5074409;28;20029;-88
2022/03/26 08:59:01;;;;;;;35.53;20.30;;;12.50;83.70;;;;;;5074827;28;20024;-88
2022/03/26 09:01:27;;;;;;;38.20;21.45;;;12.60;83.80;;;;;;5075857;28;20029;-89
2022/03/26 09:03:52;;;;;;;37.63;21.42;;;12.70;84.10;;;;;;5075993;28;20029;-89
2022/03/26 09:06:18;;;;;;;40.13;21.90;;;12.90;83.20;;;;;;5075000;28;20024;-88
2022/03/26 09:08:46;;;;;;;34.97;20.05;;;13.00;82.90;;;;;;5074537;28;20020;-88
2022/03/26 09:11:13;;;;;;;48.50;18.65;;;13.10;82.90;;;;;;5074700;28;20105;-88
2022/03/26 09:13:38;;;;;;;33.03;20.45;;;13.20;82.30;;;;;;5073854;28;20024;-87
2022/03/26 09:16:04;;;;;;;34.72;20.50;;;13.30;82.10;;;;;;5073902;28;20038;-87
2022/03/26 09:18:30;;;;;;;35.20;20.48;;;13.40;81.50;;;;;;5073695;28;20048;-87
2022/03/26 09:20:56;;;;;;;40.47;22.00;;;13.60;81.40;;;;;;5073716;28;20035;-87
2022/03/26 09:23:22;;;;;;;33.50;19.88;;;13.70;81.10;;;;;;5073783;28;20048;-87
2022/03/26 09:25:47;;;;;;;31.30;18.40;;;13.80;80.80;;;;;;5073490;28;20473;-87
2022/03/26 09:28:13;;;;;;;34.03;18.77;;;14.00;80.80;;;;;;5085809;28;20151;-88
2022/03/26 09:30:39;;;;;;;31.58;18.45;;;14.10;80.90;;;;;;5059577;28;20017;-84
2022/03/26 09:33:06;;;;;;;31.73;18.80;;;14.20;81.20;;;;;;5094243;28;20086;-83
2022/03/26 09:35:32;;;;;;;32.78;19.13;;;14.40;80.00;;;;;;5093149;28;20039;-87
2022/03/26 09:37:57;;;;;;;27.90;18.20;;;14.50;79.40;;;;;;5093438;28;20030;-87
2022/03/26 09:40:24;;;;;;;31.75;19.10;;;14.60;78.80;;;;;;5059699;28;20028;-87
2022/03/26 09:42:51;;;;;;;32.38;19.15;;;14.70;78.00;;;;;;5093032;28;20028;-87
2022/03/26 09:45:18;;;;;;;34.33;19.08;;;14.90;77.70;;;;;;5093333;28;20031;-87
2022/03/26 09:47:44;;;;;;;30.50;19.35;;;15.00;77.40;;;;;;5093469;28;20100;-87
2022/03/26 09:50:11;;;;;;;30.35;19.35;;;15.10;77.30;;;;;;5060081;28;20473;-88
2022/03/26 09:52:37;;;;;;;34.13;20.50;;;15.20;77.50;;;;;;5093552;28;20028;-88
2022/03/26 09:55:04;;;;;;;27.40;17.88;;;15.40;77.10;;;;;;5076595;28;20115;-88
2022/03/26 09:57:31;;;;;;;32.80;19.35;;;15.50;76.80;;;;;;5093291;28;20031;-88
2022/03/26 09:59:57;;;;;;;30.15;16.73;;;15.60;75.50;;;;;;5093370;28;20057;-88
2022/03/26 10:02:24;;;;;;;30.30;17.85;;;15.80;74.70;;;;;;5076135;28;20020;-87
2022/03/26 10:04:49;;;;;;;26.65;15.93;;;15.90;74.50;;;;;;5076261;28;20077;-88
2022/03/26 10:07:15;;;;;;;28.42;16.40;;;16.00;74.40;;;;;;5076405;28;20122;-88
2022/03/26 10:09:48;;;;;;;30.27;17.55;;;16.20;74.10;;;;;;5076209;28;20059;-87
2022/03/26 10:12:17;;;;;;;26.90;17.30;;;16.30;73.60;;;;;;5076637;28;20378;-87
2022/03/26 10:14:50;;;;;;;28.88;16.70;;;16.40;73.10;;;;;;5075978;28;20024;-87
2022/03/26 10:17:22;;;;;;;27.48;16.67;;;16.50;72.30;;;;;;5092856;28;20166;-88
2022/03/26 10:19:50;;;;;;;23.25;15.00;;;16.60;72.20;;;;;;5094204;28;20024;-87
2022/03/26 10:22:24;;;;;;;24.30;15.40;;;16.70;70.80;;;;;;5093049;28;20037;-88
2022/03/26 10:24:51;;;;;;;23.92;14.95;;;16.80;70.80;;;;;;5091431;28;20024;-88
2022/03/26 10:27:17;;;;;;;25.92;15.63;;;17.00;70.50;;;;;;5092901;28;20036;-87
2022/03/26 10:29:58;;;;;;;23.27;14.85;;;17.10;70.70;;;;;;5076180;28;20107;-87
2022/03/26 10:32:41;;;;;;;;;;;17.20;71.30;;;;;;5093056;28;20382;-88
2022/03/26 10:35:16;;;;;;;20.52;13.23;;;17.30;71.20;;;;;;5092889;28;20337;-88
2022/03/26 10:37:44;;;;;;;20.75;14.02;;;17.50;71.10;;;;;;5092585;28;20032;-87
2022/03/26 10:40:39;;;;;;;24.10;14.23;;;17.60;70.90;;;;;;5076182;28;20027;-88
2022/03/26 10:43:07;;;;;;;15.30;10.25;;;17.80;70.50;;;;;;5067416;28;20138;-87
2022/03/26 10:45:46;;;;;;;16.90;11.43;;;17.90;68.60;;;;;;5092881;28;20051;-88
2022/03/26 10:48:12;;;;;;;18.88;12.13;;;18.00;68.10;;;;;;5094186;28;20031;-88
2022/03/26 10:50:38;;;;;;;18.00;11.60;;;18.10;67.80;;;;;;5077589;28;20079;-86
2022/03/26 10:53:06;;;;;;;15.52;10.65;;;18.20;67.90;;;;;;5060550;28;20028;-87
2022/03/26 10:55:32;;;;;;;14.02;10.18;;;18.30;67.50;;;;;;5081557;28;20051;-88
2022/03/26 10:58:01;;;;;;;14.95;7.93;;;18.40;66.60;;;;;;5099577;28;20032;-87
2022/03/26 11:00:26;;;;;;;14.25;7.38;;;18.50;65.70;;;;;;5097095;28;20028;-88
2022/03/26 11:02:52;;;;;;;16.05;9.35;;;18.60;65.00;;;;;;5083129;28;20035;-88
2022/03/26 11:05:18;;;;;;;13.48;8.05;;;18.70;64.80;;;;;;5081934;28;20052;-87
2022/03/26 11:07:45;;;;;;;16.52;8.95;;;18.80;64.40;;;;;;5079442;28;20024;-85
2022/03/26 11:10:12;;;;;;;13.23;8.18;;;18.80;63.90;;;;;;5096735;28;20024;-86
2022/03/26 11:12:47;;;;;;;14.38;9.00;;;18.90;63.80;;;;;;5096176;28;20430;-85
2022/03/26 11:15:22;;;;;;;15.20;10.75;;;19.00;64.20;;;;;;5097856;28;20099;-85
2022/03/26 11:18:04;;;;;;;14.68;9.10;;;19.10;64.30;;;;;;5096523;28;20024;-85
2022/03/26 11:20:49;;;;;;;14.10;8.23;;;19.30;64.20;;;;;;5101672;28;20392;-85
2022/03/26 11:23:48;;;;;;;11.77;7.90;;;19.50;63.60;;;;;;5102250;28;20024;-85
2022/03/26 11:26:46;;;;;;;10.90;6.68;;;19.50;62.60;;;;;;5097997;28;20462;-84
2022/03/26 11:29:50;;;;;;;12.55;7.00;;;19.70;62.00;;;;;;5105091;28;20032;-86
2022/03/26 11:32:43;;;;;;;12.43;7.38;;;19.80;60.70;;;;;;5016701;28;20067;-86
2022/03/26 11:35:11;;;;;;;13.93;7.55;;;19.90;60.10;;;;;;5096145;28;20024;-85
2022/03/26 11:37:50;;;;;;;14.13;8.15;;;20.00;60.10;;;;;;5095736;28;20119;-86
2022/03/26 11:40:50;;;;;;;14.80;9.05;;;20.10;59.60;;;;;;5098887;28;20031;-85
2022/03/26 11:43:19;;;;;;;16.73;8.50;;;20.30;58.40;;;;;;5101198;28;20423;-86
2022/03/26 11:51:26;;;;;;;16.95;9.98;;;20.50;57.10;;;;;;5082070;28;20039;-90
2022/03/26 11:54:07;;;;;;;17.73;10.68;;;20.60;56.80;;;;;;5096911;28;20055;-91
2022/03/26 11:56:34;;;;;;;18.92;10.50;;;20.70;56.80;;;;;;5098082;28;20034;-91
2022/03/26 11:59:05;;;;;;;22.50;11.88;;;20.70;56.30;;;;;;5096879;28;20073;-91
2022/03/26 12:01:41;;;;;;;17.55;11.15;;;20.80;54.10;;;;;;5096436;28;20035;-91
2022/03/26 12:04:14;;;;;;;15.20;9.43;;;20.80;53.20;;;;;;5096208;28;20081;-93
2022/03/26 12:06:51;;;;;;;17.25;9.68;;;20.90;54.10;;;;;;5080370;28;20085;-92
2022/03/26 12:09:46;;;;;;;15.55;8.98;;;21.00;54.00;;;;;;5096443;28;20043;-93
2022/03/26 12:12:15;;;;;;;13.98;8.50;;;21.10;53.90;;;;;;5079612;28;20066;-93
2022/03/26 12:15:02;;;;;;;17.80;9.18;;;21.10;53.00;;;;;;5079874;28;20553;-94
2022/03/26 12:17:48;;;;;;;15.07;8.52;;;21.20;52.90;;;;;;5096260;28;20028;-94
2022/03/26 12:20:39;;;;;;;13.55;8.50;;;21.30;52.40;;;;;;5096444;28;20542;-92
2022/03/26 12:23:19;;;;;;;15.02;7.75;;;21.40;52.30;;;;;;5096969;28;20601;-94
2022/03/26 12:25:50;;;;;;;10.90;6.40;;;21.50;51.60;;;;;;5096809;28;20469;-92
2022/03/26 12:28:24;;;;;;;;;;;21.60;52.30;;;;;;5097020;28;20024;-93
2022/03/26 12:30:59;;;;;;;10.43;6.57;;;21.70;52.80;;;;;;5096532;28;19904;-94
2022/03/26 12:33:26;;;;;;;9.80;5.97;;;21.80;51.20;;;;;;5078508;28;20134;-92
2022/03/26 12:35:54;;;;;;;10.57;6.68;;;21.90;51.10;;;;;;5095580;28;20040;-92
2022/03/26 12:38:21;;;;;;;13.23;6.55;;;21.90;49.60;;;;;;5096066;28;20020;-94
2022/03/26 12:40:56;;;;;;;14.73;8.23;;;22.00;50.00;;;;;;5079422;28;20024;-92
2022/03/26 12:43:23;;;;;;;13.73;7.03;;;22.00;49.30;;;;;;5095412;28;20088;-90